sensor_id;sensor_type;location;lat;lon;timestamp;P1;durP1;ratioP1;P2;durP2;ratioP2
71914;SDS011;60387;49.994;14.660;2022-12-18T00:00:14;12.50;;;4.77;;
71914;SDS011;60387;49.994;14.660;2022-12-18T00:02:47;15.82;;;5.40;;
71914;SDS011;60387;49.994;14.660;2022-12-18T00:05:20;16.20;;;6.10;;
71914;SDS011;60387;49.994;14.660;2022-12-18T00:07:54;14.30;;;5.97;;
71914;SDS011;60387;49.994;14.660;2022-12-18T00:10:28;15.37;;;5.93;;
71914;SDS011;60387;49.994;14.660;2022-12-18T00:13:01;14.05;;;5.90;;
71914;SDS011;60387;49.994;14.660;2022-12-18T00:15:35;15.13;;;5.45;;
71914;SDS011;60387;49.994;14.660;2022-12-18T00:18:09;15.48;;;5.85;;
71914;SDS011;60387;49.994;14.660;2022-12-18T00:20:42;24.60;;;8.15;;
71914;SDS011;60387;49.994;14.660;2022-12-18T00:23:16;18.20;;;5.07;;
71914;SDS011;60387;49.994;14.660;2022-12-18T00:25:49;18.90;;;6.13;;
71914;SDS011;60387;49.994;14.660;2022-12-18T00:28:22;17.53;;;5.57;;
71914;SDS011;60387;49.994;14.660;2022-12-18T00:31:03;9.17;;;3.83;;
71914;SDS011;60387;49.994;14.660;2022-12-18T00:33:39;11.77;;;4.63;;
71914;SDS011;60387;49.994;14.660;2022-12-18T00:36:14;18.65;;;4.65;;
71914;SDS011;60387;49.994;14.660;2022-12-18T00:38:53;17.87;;;4.53;;
71914;SDS011;60387;49.994;14.660;2022-12-18T00:41:28;18.70;;;5.30;;
71914;SDS011;60387;49.994;14.660;2022-12-18T00:44:02;20.67;;;6.17;;
71914;SDS011;60387;49.994;14.660;2022-12-18T00:46:36;17.27;;;6.03;;
71914;SDS011;60387;49.994;14.660;2022-12-18T00:49:09;18.57;;;6.43;;
71914;SDS011;60387;49.994;14.660;2022-12-18T00:51:43;27.93;;;7.47;;
71914;SDS011;60387;49.994;14.660;2022-12-18T00:54:16;17.23;;;5.23;;
71914;SDS011;60387;49.994;14.660;2022-12-18T00:56:50;21.60;;;6.10;;
71914;SDS011;60387;49.994;14.660;2022-12-18T00:59:23;23.47;;;5.63;;
71914;SDS011;60387;49.994;14.660;2022-12-18T01:01:57;19.17;;;5.53;;
71914;SDS011;60387;49.994;14.660;2022-12-18T01:04:33;21.13;;;6.27;;
71914;SDS011;60387;49.994;14.660;2022-12-18T01:07:07;15.50;;;5.88;;
71914;SDS011;60387;49.994;14.660;2022-12-18T01:09:40;16.57;;;5.40;;
71914;SDS011;60387;49.994;14.660;2022-12-18T01:12:13;18.97;;;6.17;;
71914;SDS011;60387;49.994;14.660;2022-12-18T01:14:47;22.23;;;4.43;;
71914;SDS011;60387;49.994;14.660;2022-12-18T01:17:21;18.53;;;6.47;;
71914;SDS011;60387;49.994;14.660;2022-12-18T01:19:54;13.15;;;4.57;;
71914;SDS011;60387;49.994;14.660;2022-12-18T01:22:28;14.50;;;4.03;;
71914;SDS011;60387;49.994;14.660;2022-12-18T01:25:01;15.50;;;4.73;;
71914;SDS011;60387;49.994;14.660;2022-12-18T01:27:34;13.40;;;5.70;;
71914;SDS011;60387;49.994;14.660;2022-12-18T01:30:08;16.90;;;5.10;;
71914;SDS011;60387;49.994;14.660;2022-12-18T01:32:42;18.90;;;5.95;;
71914;SDS011;60387;49.994;14.660;2022-12-18T01:35:15;17.43;;;4.90;;
71914;SDS011;60387;49.994;14.660;2022-12-18T01:37:48;18.83;;;5.43;;
71914;SDS011;60387;49.994;14.660;2022-12-18T01:40:21;12.10;;;5.20;;
71914;SDS011;60387;49.994;14.660;2022-12-18T01:42:55;16.70;;;4.83;;
71914;SDS011;60387;49.994;14.660;2022-12-18T01:45:29;21.52;;;5.00;;
71914;SDS011;60387;49.994;14.660;2022-12-18T01:48:07;19.60;;;4.88;;
71914;SDS011;60387;49.994;14.660;2022-12-18T01:50:42;14.13;;;4.65;;
71914;SDS011;60387;49.994;14.660;2022-12-18T01:53:17;14.17;;;4.23;;
71914;SDS011;60387;49.994;14.660;2022-12-18T01:55:56;12.65;;;3.60;;
71914;SDS011;60387;49.994;14.660;2022-12-18T02:01:16;15.63;;;4.32;;
71914;SDS011;60387;49.994;14.660;2022-12-18T02:03:50;18.33;;;5.88;;
71914;SDS011;60387;49.994;14.660;2022-12-18T02:06:34;12.75;;;4.18;;
71914;SDS011;60387;49.994;14.660;2022-12-18T02:09:18;9.70;;;3.63;;
71914;SDS011;60387;49.994;14.660;2022-12-18T02:17:36;11.93;;;1.92;;
71914;SDS011;60387;49.994;14.660;2022-12-18T02:20:20;17.87;;;5.47;;
71914;SDS011;60387;49.994;14.660;2022-12-18T02:23:04;20.77;;;4.97;;
71914;SDS011;60387;49.994;14.660;2022-12-18T02:29:11;25.80;;;5.30;;
71914;SDS011;60387;49.994;14.660;2022-12-18T02:31:50;13.38;;;4.43;;
71914;SDS011;60387;49.994;14.660;2022-12-18T02:34:28;10.50;;;4.88;;
71914;SDS011;60387;49.994;14.660;2022-12-18T02:37:04;15.35;;;4.80;;
71914;SDS011;60387;49.994;14.660;2022-12-18T02:39:43;10.52;;;4.45;;
71914;SDS011;60387;49.994;14.660;2022-12-18T02:42:19;12.05;;;4.35;;
71914;SDS011;60387;49.994;14.660;2022-12-18T02:44:53;21.23;;;6.23;;
71914;SDS011;60387;49.994;14.660;2022-12-18T02:47:30;15.93;;;5.27;;
71914;SDS011;60387;49.994;14.660;2022-12-18T02:53:13;16.55;;;4.88;;
71914;SDS011;60387;49.994;14.660;2022-12-18T02:56:18;17.17;;;4.13;;
71914;SDS011;60387;49.994;14.660;2022-12-18T03:01:45;11.63;;;4.50;;
71914;SDS011;60387;49.994;14.660;2022-12-18T03:04:36;11.82;;;4.03;;
71914;SDS011;60387;49.994;14.660;2022-12-18T03:07:21;9.38;;;3.08;;
71914;SDS011;60387;49.994;14.660;2022-12-18T03:10:00;23.75;;;5.97;;
71914;SDS011;60387;49.994;14.660;2022-12-18T03:12:35;14.17;;;4.63;;
71914;SDS011;60387;49.994;14.660;2022-12-18T03:15:58;11.15;;;4.30;;
71914;SDS011;60387;49.994;14.660;2022-12-18T03:18:38;22.80;;;6.20;;
71914;SDS011;60387;49.994;14.660;2022-12-18T03:21:26;12.32;;;4.20;;
71914;SDS011;60387;49.994;14.660;2022-12-18T03:24:06;14.17;;;4.07;;
71914;SDS011;60387;49.994;14.660;2022-12-18T03:26:42;15.13;;;4.00;;
71914;SDS011;60387;49.994;14.660;2022-12-18T03:29:21;13.63;;;4.60;;
71914;SDS011;60387;49.994;14.660;2022-12-18T03:32:04;17.70;;;5.33;;
71914;SDS011;60387;49.994;14.660;2022-12-18T03:34:43;14.80;;;3.45;;
71914;SDS011;60387;49.994;14.660;2022-12-18T03:37:21;15.27;;;3.38;;
71914;SDS011;60387;49.994;14.660;2022-12-18T03:39:54;13.97;;;3.77;;
71914;SDS011;60387;49.994;14.660;2022-12-18T03:42:48;13.93;;;3.90;;
71914;SDS011;60387;49.994;14.660;2022-12-18T03:45:26;23.60;;;5.72;;
71914;SDS011;60387;49.994;14.660;2022-12-18T03:50:46;18.98;;;6.07;;
71914;SDS011;60387;49.994;14.660;2022-12-18T03:53:35;17.20;;;5.82;;
71914;SDS011;60387;49.994;14.660;2022-12-18T03:56:10;20.13;;;7.50;;
71914;SDS011;60387;49.994;14.660;2022-12-18T03:58:46;22.38;;;9.00;;
71914;SDS011;60387;49.994;14.660;2022-12-18T04:01:22;22.27;;;7.43;;
71914;SDS011;60387;49.994;14.660;2022-12-18T04:04:01;24.95;;;6.80;;
71914;SDS011;60387;49.994;14.660;2022-12-18T04:06:36;28.27;;;8.17;;
71914;SDS011;60387;49.994;14.660;2022-12-18T04:09:11;18.45;;;7.28;;
71914;SDS011;60387;49.994;14.660;2022-12-18T04:11:45;23.52;;;6.15;;
71914;SDS011;60387;49.994;14.660;2022-12-18T04:14:19;23.67;;;6.97;;
71914;SDS011;60387;49.994;14.660;2022-12-18T04:16:53;22.65;;;5.88;;
71914;SDS011;60387;49.994;14.660;2022-12-18T04:19:26;21.67;;;7.70;;
71914;SDS011;60387;49.994;14.660;2022-12-18T04:21:59;17.47;;;5.90;;
71914;SDS011;60387;49.994;14.660;2022-12-18T04:24:32;20.07;;;6.37;;
71914;SDS011;60387;49.994;14.660;2022-12-18T04:27:06;20.50;;;5.53;;
71914;SDS011;60387;49.994;14.660;2022-12-18T04:29:39;65.03;;;20.43;;
71914;SDS011;60387;49.994;14.660;2022-12-18T04:32:13;63.30;;;15.50;;
71914;SDS011;60387;49.994;14.660;2022-12-18T04:34:46;39.97;;;10.73;;
71914;SDS011;60387;49.994;14.660;2022-12-18T04:37:19;22.47;;;8.67;;
71914;SDS011;60387;49.994;14.660;2022-12-18T04:39:53;26.77;;;9.07;;
71914;SDS011;60387;49.994;14.660;2022-12-18T04:42:26;27.38;;;7.25;;
71914;SDS011;60387;49.994;14.660;2022-12-18T04:44:59;28.07;;;6.53;;
71914;SDS011;60387;49.994;14.660;2022-12-18T04:47:33;22.03;;;5.57;;
71914;SDS011;60387;49.994;14.660;2022-12-18T04:50:06;31.43;;;8.53;;
71914;SDS011;60387;49.994;14.660;2022-12-18T04:52:40;30.90;;;8.17;;
71914;SDS011;60387;49.994;14.660;2022-12-18T04:55:13;24.57;;;8.53;;
71914;SDS011;60387;49.994;14.660;2022-12-18T04:57:46;25.57;;;8.17;;
71914;SDS011;60387;49.994;14.660;2022-12-18T05:00:19;36.13;;;8.37;;
71914;SDS011;60387;49.994;14.660;2022-12-18T05:02:53;24.92;;;8.10;;
71914;SDS011;60387;49.994;14.660;2022-12-18T05:05:26;20.73;;;7.47;;
71914;SDS011;60387;49.994;14.660;2022-12-18T05:08:00;21.10;;;5.63;;
71914;SDS011;60387;49.994;14.660;2022-12-18T05:10:33;24.93;;;5.80;;
71914;SDS011;60387;49.994;14.660;2022-12-18T05:13:06;25.53;;;6.50;;
71914;SDS011;60387;49.994;14.660;2022-12-18T05:15:40;18.83;;;5.43;;
71914;SDS011;60387;49.994;14.660;2022-12-18T05:18:13;33.50;;;5.77;;
71914;SDS011;60387;49.994;14.660;2022-12-18T05:20:46;18.37;;;6.20;;
71914;SDS011;60387;49.994;14.660;2022-12-18T05:23:20;20.07;;;5.60;;
71914;SDS011;60387;49.994;14.660;2022-12-18T05:25:56;24.50;;;8.30;;
71914;SDS011;60387;49.994;14.660;2022-12-18T05:28:31;23.65;;;5.90;;
71914;SDS011;60387;49.994;14.660;2022-12-18T05:31:05;27.13;;;6.68;;
71914;SDS011;60387;49.994;14.660;2022-12-18T05:33:39;17.37;;;3.67;;
71914;SDS011;60387;49.994;14.660;2022-12-18T05:36:12;11.57;;;3.30;;
71914;SDS011;60387;49.994;14.660;2022-12-18T05:38:45;20.60;;;5.77;;
71914;SDS011;60387;49.994;14.660;2022-12-18T05:41:18;17.80;;;4.90;;
71914;SDS011;60387;49.994;14.660;2022-12-18T05:43:52;19.90;;;4.77;;
71914;SDS011;60387;49.994;14.660;2022-12-18T05:46:25;18.00;;;4.67;;
71914;SDS011;60387;49.994;14.660;2022-12-18T05:48:59;20.88;;;4.75;;
71914;SDS011;60387;49.994;14.660;2022-12-18T05:51:33;21.43;;;5.47;;
71914;SDS011;60387;49.994;14.660;2022-12-18T05:54:06;18.92;;;6.88;;
71914;SDS011;60387;49.994;14.660;2022-12-18T05:56:40;19.60;;;4.83;;
71914;SDS011;60387;49.994;14.660;2022-12-18T05:59:13;16.50;;;4.67;;
71914;SDS011;60387;49.994;14.660;2022-12-18T06:01:46;18.93;;;4.70;;
71914;SDS011;60387;49.994;14.660;2022-12-18T06:04:19;18.00;;;4.47;;
71914;SDS011;60387;49.994;14.660;2022-12-18T06:06:53;21.03;;;5.50;;
71914;SDS011;60387;49.994;14.660;2022-12-18T06:09:26;20.67;;;5.80;;
71914;SDS011;60387;49.994;14.660;2022-12-18T06:11:59;20.37;;;6.33;;
71914;SDS011;60387;49.994;14.660;2022-12-18T06:14:32;15.13;;;4.83;;
71914;SDS011;60387;49.994;14.660;2022-12-18T06:17:06;21.53;;;6.07;;
71914;SDS011;60387;49.994;14.660;2022-12-18T06:19:39;26.03;;;8.13;;
71914;SDS011;60387;49.994;14.660;2022-12-18T06:22:12;24.23;;;5.10;;
71914;SDS011;60387;49.994;14.660;2022-12-18T06:24:46;21.57;;;5.87;;
71914;SDS011;60387;49.994;14.660;2022-12-18T06:27:19;19.20;;;5.50;;
71914;SDS011;60387;49.994;14.660;2022-12-18T06:29:52;33.33;;;8.80;;
71914;SDS011;60387;49.994;14.660;2022-12-18T06:32:26;28.77;;;7.00;;
71914;SDS011;60387;49.994;14.660;2022-12-18T06:34:59;37.57;;;7.60;;
71914;SDS011;60387;49.994;14.660;2022-12-18T06:37:32;20.80;;;4.50;;
71914;SDS011;60387;49.994;14.660;2022-12-18T06:40:06;28.30;;;6.97;;
71914;SDS011;60387;49.994;14.660;2022-12-18T06:42:39;24.60;;;9.10;;
71914;SDS011;60387;49.994;14.660;2022-12-18T06:45:16;23.40;;;8.03;;
71914;SDS011;60387;49.994;14.660;2022-12-18T06:47:49;23.70;;;5.22;;
71914;SDS011;60387;49.994;14.660;2022-12-18T06:50:23;23.37;;;7.20;;
71914;SDS011;60387;49.994;14.660;2022-12-18T06:52:56;17.37;;;6.53;;
71914;SDS011;60387;49.994;14.660;2022-12-18T06:55:29;17.13;;;3.70;;
71914;SDS011;60387;49.994;14.660;2022-12-18T06:58:02;16.07;;;4.93;;
71914;SDS011;60387;49.994;14.660;2022-12-18T07:00:36;17.90;;;5.40;;
71914;SDS011;60387;49.994;14.660;2022-12-18T07:03:09;21.77;;;5.83;;
71914;SDS011;60387;49.994;14.660;2022-12-18T07:05:43;13.23;;;4.13;;
71914;SDS011;60387;49.994;14.660;2022-12-18T07:08:16;14.47;;;5.17;;
71914;SDS011;60387;49.994;14.660;2022-12-18T07:10:49;16.80;;;4.67;;
71914;SDS011;60387;49.994;14.660;2022-12-18T07:13:22;16.70;;;3.30;;
71914;SDS011;60387;49.994;14.660;2022-12-18T07:16:02;20.40;;;3.93;;
71914;SDS011;60387;49.994;14.660;2022-12-18T07:18:39;12.33;;;4.30;;
71914;SDS011;60387;49.994;14.660;2022-12-18T07:21:13;13.60;;;3.88;;
71914;SDS011;60387;49.994;14.660;2022-12-18T07:23:48;16.50;;;3.93;;
71914;SDS011;60387;49.994;14.660;2022-12-18T07:26:22;15.90;;;3.90;;
71914;SDS011;60387;49.994;14.660;2022-12-18T07:28:55;12.87;;;4.30;;
71914;SDS011;60387;49.994;14.660;2022-12-18T07:31:29;15.37;;;4.67;;
71914;SDS011;60387;49.994;14.660;2022-12-18T07:34:02;10.43;;;3.93;;
71914;SDS011;60387;49.994;14.660;2022-12-18T07:36:35;12.33;;;3.83;;
71914;SDS011;60387;49.994;14.660;2022-12-18T07:39:10;14.27;;;3.97;;
71914;SDS011;60387;49.994;14.660;2022-12-18T07:41:44;13.15;;;3.80;;
71914;SDS011;60387;49.994;14.660;2022-12-18T07:44:17;10.83;;;3.93;;
71914;SDS011;60387;49.994;14.660;2022-12-18T07:46:51;10.43;;;3.43;;
71914;SDS011;60387;49.994;14.660;2022-12-18T07:49:24;10.07;;;3.23;;
71914;SDS011;60387;49.994;14.660;2022-12-18T07:51:57;3.77;;;1.17;;
71914;SDS011;60387;49.994;14.660;2022-12-18T07:54:31;12.63;;;4.17;;
71914;SDS011;60387;49.994;14.660;2022-12-18T07:57:04;15.13;;;4.55;;
71914;SDS011;60387;49.994;14.660;2022-12-18T07:59:37;16.92;;;4.80;;
71914;SDS011;60387;49.994;14.660;2022-12-18T08:02:11;17.10;;;5.30;;
71914;SDS011;60387;49.994;14.660;2022-12-18T08:04:44;15.68;;;3.92;;
71914;SDS011;60387;49.994;14.660;2022-12-18T08:07:17;13.30;;;4.72;;
71914;SDS011;60387;49.994;14.660;2022-12-18T08:09:50;11.75;;;3.90;;
71914;SDS011;60387;49.994;14.660;2022-12-18T08:12:24;17.58;;;5.03;;
71914;SDS011;60387;49.994;14.660;2022-12-18T08:14:57;22.88;;;6.60;;
71914;SDS011;60387;49.994;14.660;2022-12-18T08:17:30;16.15;;;5.20;;
71914;SDS011;60387;49.994;14.660;2022-12-18T08:20:04;26.17;;;6.45;;
71914;SDS011;60387;49.994;14.660;2022-12-18T08:22:37;19.90;;;5.90;;
71914;SDS011;60387;49.994;14.660;2022-12-18T08:25:10;16.20;;;4.57;;
71914;SDS011;60387;49.994;14.660;2022-12-18T08:27:44;11.67;;;3.93;;
71914;SDS011;60387;49.994;14.660;2022-12-18T08:30:17;19.33;;;5.13;;
71914;SDS011;60387;49.994;14.660;2022-12-18T08:32:51;22.77;;;8.80;;
71914;SDS011;60387;49.994;14.660;2022-12-18T08:35:24;18.83;;;5.15;;
71914;SDS011;60387;49.994;14.660;2022-12-18T08:37:58;18.07;;;5.10;;
71914;SDS011;60387;49.994;14.660;2022-12-18T08:40:31;19.13;;;5.50;;
71914;SDS011;60387;49.994;14.660;2022-12-18T08:43:04;17.33;;;4.57;;
71914;SDS011;60387;49.994;14.660;2022-12-18T08:45:37;14.60;;;4.50;;
71914;SDS011;60387;49.994;14.660;2022-12-18T08:48:11;19.37;;;5.20;;
71914;SDS011;60387;49.994;14.660;2022-12-18T08:50:52;9.83;;;3.53;;
71914;SDS011;60387;49.994;14.660;2022-12-18T08:53:27;14.27;;;4.80;;
71914;SDS011;60387;49.994;14.660;2022-12-18T08:56:00;19.37;;;6.33;;
71914;SDS011;60387;49.994;14.660;2022-12-18T08:58:34;18.67;;;4.83;;
71914;SDS011;60387;49.994;14.660;2022-12-18T09:01:08;14.13;;;4.20;;
71914;SDS011;60387;49.994;14.660;2022-12-18T09:03:46;16.05;;;5.18;;
71914;SDS011;60387;49.994;14.660;2022-12-18T09:06:20;15.07;;;5.18;;
71914;SDS011;60387;49.994;14.660;2022-12-18T09:08:55;18.07;;;5.17;;
71914;SDS011;60387;49.994;14.660;2022-12-18T09:11:30;13.77;;;3.92;;
71914;SDS011;60387;49.994;14.660;2022-12-18T09:14:04;16.23;;;4.68;;
71914;SDS011;60387;49.994;14.660;2022-12-18T09:16:37;16.83;;;6.60;;
71914;SDS011;60387;49.994;14.660;2022-12-18T09:19:11;16.50;;;5.63;;
71914;SDS011;60387;49.994;14.660;2022-12-18T09:21:44;17.33;;;5.00;;
71914;SDS011;60387;49.994;14.660;2022-12-18T09:24:17;15.32;;;5.07;;
71914;SDS011;60387;49.994;14.660;2022-12-18T09:26:54;18.95;;;6.13;;
71914;SDS011;60387;49.994;14.660;2022-12-18T09:29:27;17.00;;;4.80;;
71914;SDS011;60387;49.994;14.660;2022-12-18T09:32:00;21.30;;;6.37;;
71914;SDS011;60387;49.994;14.660;2022-12-18T09:34:34;17.57;;;5.00;;
71914;SDS011;60387;49.994;14.660;2022-12-18T09:37:07;16.88;;;5.65;;
71914;SDS011;60387;49.994;14.660;2022-12-18T09:39:40;17.13;;;4.95;;
71914;SDS011;60387;49.994;14.660;2022-12-18T09:42:20;21.60;;;7.72;;
71914;SDS011;60387;49.994;14.660;2022-12-18T09:44:54;17.80;;;6.22;;
71914;SDS011;60387;49.994;14.660;2022-12-18T09:47:29;17.30;;;6.07;;
71914;SDS011;60387;49.994;14.660;2022-12-18T09:50:40;16.60;;;5.40;;
71914;SDS011;60387;49.994;14.660;2022-12-18T09:53:12;13.90;;;4.93;;
71914;SDS011;60387;49.994;14.660;2022-12-18T09:55:50;17.63;;;6.15;;
71914;SDS011;60387;49.994;14.660;2022-12-18T09:58:29;19.45;;;8.02;;
71914;SDS011;60387;49.994;14.660;2022-12-18T10:01:12;22.65;;;6.47;;
71914;SDS011;60387;49.994;14.660;2022-12-18T10:03:48;23.13;;;8.47;;
71914;SDS011;60387;49.994;14.660;2022-12-18T10:09:22;21.73;;;8.25;;
71914;SDS011;60387;49.994;14.660;2022-12-18T10:17:50;20.87;;;7.37;;
71914;SDS011;60387;49.994;14.660;2022-12-18T10:20:45;24.10;;;7.35;;
71914;SDS011;60387;49.994;14.660;2022-12-18T10:23:46;29.05;;;8.05;;
71914;SDS011;60387;49.994;14.660;2022-12-18T10:26:33;139.00;;;32.17;;
71914;SDS011;60387;49.994;14.660;2022-12-18T10:29:14;22.15;;;7.55;;
71914;SDS011;60387;49.994;14.660;2022-12-18T10:31:48;24.70;;;8.00;;
71914;SDS011;60387;49.994;14.660;2022-12-18T10:34:21;29.97;;;8.57;;
71914;SDS011;60387;49.994;14.660;2022-12-18T10:36:56;22.60;;;8.20;;
71914;SDS011;60387;49.994;14.660;2022-12-18T10:39:29;23.00;;;7.53;;
71914;SDS011;60387;49.994;14.660;2022-12-18T10:42:10;28.35;;;9.13;;
71914;SDS011;60387;49.994;14.660;2022-12-18T10:44:53;22.85;;;8.23;;
71914;SDS011;60387;49.994;14.660;2022-12-18T10:47:36;19.60;;;5.93;;
71914;SDS011;60387;49.994;14.660;2022-12-18T10:50:33;24.00;;;7.32;;
71914;SDS011;60387;49.994;14.660;2022-12-18T10:53:13;24.92;;;8.93;;
71914;SDS011;60387;49.994;14.660;2022-12-18T10:55:52;39.87;;;14.93;;
71914;SDS011;60387;49.994;14.660;2022-12-18T10:58:29;30.42;;;10.50;;
71914;SDS011;60387;49.994;14.660;2022-12-18T11:01:04;32.92;;;12.75;;
71914;SDS011;60387;49.994;14.660;2022-12-18T11:03:44;30.33;;;9.48;;
71914;SDS011;60387;49.994;14.660;2022-12-18T11:06:19;22.45;;;7.78;;
71914;SDS011;60387;49.994;14.660;2022-12-18T11:12:02;19.75;;;6.95;;
71914;SDS011;60387;49.994;14.660;2022-12-18T11:14:57;21.83;;;8.23;;
71914;SDS011;60387;49.994;14.660;2022-12-18T11:17:31;20.20;;;6.95;;
71914;SDS011;60387;49.994;14.660;2022-12-18T11:20:07;25.77;;;9.27;;
71914;SDS011;60387;49.994;14.660;2022-12-18T11:22:59;22.80;;;7.82;;
71914;SDS011;60387;49.994;14.660;2022-12-18T11:25:34;27.27;;;8.48;;
71914;SDS011;60387;49.994;14.660;2022-12-18T11:33:54;25.67;;;8.00;;
71914;SDS011;60387;49.994;14.660;2022-12-18T11:36:45;22.95;;;6.50;;
71914;SDS011;60387;49.994;14.660;2022-12-18T11:42:25;22.77;;;8.20;;
71914;SDS011;60387;49.994;14.660;2022-12-18T11:47:49;79.18;;;17.58;;
71914;SDS011;60387;49.994;14.660;2022-12-18T11:50:31;180.75;;;35.40;;
71914;SDS011;60387;49.994;14.660;2022-12-18T11:53:18;49.57;;;13.57;;
71914;SDS011;60387;49.994;14.660;2022-12-18T11:55:56;27.80;;;9.07;;
71914;SDS011;60387;49.994;14.660;2022-12-18T12:02:13;27.13;;;8.65;;
71914;SDS011;60387;49.994;14.660;2022-12-18T12:08:00;31.90;;;10.30;;
71914;SDS011;60387;49.994;14.660;2022-12-18T12:13:37;30.23;;;9.63;;
71914;SDS011;60387;49.994;14.660;2022-12-18T12:25:04;29.63;;;9.80;;
71914;SDS011;60387;49.994;14.660;2022-12-18T12:30:56;29.92;;;10.05;;
71914;SDS011;60387;49.994;14.660;2022-12-18T12:36:48;35.67;;;12.67;;
71914;SDS011;60387;49.994;14.660;2022-12-18T12:39:27;43.38;;;14.35;;
71914;SDS011;60387;49.994;14.660;2022-12-18T12:42:05;36.58;;;12.90;;
71914;SDS011;60387;49.994;14.660;2022-12-18T12:44:56;40.92;;;13.85;;
71914;SDS011;60387;49.994;14.660;2022-12-18T12:47:36;47.97;;;14.35;;
71914;SDS011;60387;49.994;14.660;2022-12-18T12:50:16;38.57;;;12.63;;
71914;SDS011;60387;49.994;14.660;2022-12-18T12:52:53;43.28;;;14.32;;
71914;SDS011;60387;49.994;14.660;2022-12-18T12:55:29;37.00;;;13.80;;
71914;SDS011;60387;49.994;14.660;2022-12-18T13:00:54;43.13;;;15.88;;
71914;SDS011;60387;49.994;14.660;2022-12-18T13:03:42;37.78;;;14.15;;
71914;SDS011;60387;49.994;14.660;2022-12-18T13:09:20;33.28;;;12.60;;
71914;SDS011;60387;49.994;14.660;2022-12-18T13:11:54;30.20;;;9.10;;
71914;SDS011;60387;49.994;14.660;2022-12-18T13:14:42;39.28;;;12.85;;
71914;SDS011;60387;49.994;14.660;2022-12-18T13:20:05;36.58;;;11.63;;
71914;SDS011;60387;49.994;14.660;2022-12-18T13:28:07;42.13;;;14.20;;
71914;SDS011;60387;49.994;14.660;2022-12-18T13:30:46;59.78;;;17.20;;
71914;SDS011;60387;49.994;14.660;2022-12-18T13:36:00;31.13;;;11.97;;
71914;SDS011;60387;49.994;14.660;2022-12-18T13:41:54;27.35;;;9.95;;
71914;SDS011;60387;49.994;14.660;2022-12-18T13:44:45;27.60;;;9.10;;
71914;SDS011;60387;49.994;14.660;2022-12-18T13:47:36;26.92;;;10.57;;
71914;SDS011;60387;49.994;14.660;2022-12-18T13:50:25;30.95;;;10.98;;
71914;SDS011;60387;49.994;14.660;2022-12-18T13:52:59;23.00;;;8.65;;
71914;SDS011;60387;49.994;14.660;2022-12-18T13:55:32;18.47;;;7.57;;
71914;SDS011;60387;49.994;14.660;2022-12-18T13:58:06;18.48;;;6.32;;
71914;SDS011;60387;49.994;14.660;2022-12-18T14:00:42;23.77;;;7.83;;
71914;SDS011;60387;49.994;14.660;2022-12-18T14:03:22;17.80;;;4.70;;
71914;SDS011;60387;49.994;14.660;2022-12-18T14:06:06;15.73;;;6.38;;
71914;SDS011;60387;49.994;14.660;2022-12-18T14:08:41;18.60;;;6.75;;
71914;SDS011;60387;49.994;14.660;2022-12-18T14:11:19;25.20;;;7.57;;
71914;SDS011;60387;49.994;14.660;2022-12-18T14:13:55;17.05;;;5.60;;
71914;SDS011;60387;49.994;14.660;2022-12-18T14:16:29;27.53;;;6.83;;
71914;SDS011;60387;49.994;14.660;2022-12-18T14:19:03;21.98;;;7.95;;
71914;SDS011;60387;49.994;14.660;2022-12-18T14:21:38;17.23;;;6.63;;
71914;SDS011;60387;49.994;14.660;2022-12-18T14:24:13;20.70;;;5.80;;
71914;SDS011;60387;49.994;14.660;2022-12-18T14:26:47;20.43;;;7.40;;
71914;SDS011;60387;49.994;14.660;2022-12-18T14:29:29;13.70;;;4.43;;
71914;SDS011;60387;49.994;14.660;2022-12-18T14:32:14;16.63;;;6.35;;
71914;SDS011;60387;49.994;14.660;2022-12-18T14:34:49;25.88;;;8.20;;
71914;SDS011;60387;49.994;14.660;2022-12-18T14:37:25;22.55;;;7.00;;
71914;SDS011;60387;49.994;14.660;2022-12-18T14:40:00;23.40;;;8.57;;
71914;SDS011;60387;49.994;14.660;2022-12-18T14:42:35;19.65;;;6.68;;
71914;SDS011;60387;49.994;14.660;2022-12-18T14:48:21;15.55;;;5.13;;
71914;SDS011;60387;49.994;14.660;2022-12-18T14:51:06;17.92;;;5.75;;
71914;SDS011;60387;49.994;14.660;2022-12-18T14:53:49;17.47;;;5.70;;
71914;SDS011;60387;49.994;14.660;2022-12-18T14:56:34;20.05;;;6.90;;
71914;SDS011;60387;49.994;14.660;2022-12-18T14:59:13;18.35;;;6.05;;
71914;SDS011;60387;49.994;14.660;2022-12-18T15:09:37;22.40;;;7.10;;
71914;SDS011;60387;49.994;14.660;2022-12-18T15:12:26;22.60;;;6.87;;
71914;SDS011;60387;49.994;14.660;2022-12-18T15:23:34;24.90;;;8.93;;
71914;SDS011;60387;49.994;14.660;2022-12-18T15:26:10;15.70;;;6.75;;
71914;SDS011;60387;49.994;14.660;2022-12-18T15:28:46;19.88;;;7.70;;
71914;SDS011;60387;49.994;14.660;2022-12-18T15:31:34;29.27;;;9.50;;
71914;SDS011;60387;49.994;14.660;2022-12-18T15:36:41;15.97;;;5.63;;
71914;SDS011;60387;49.994;14.660;2022-12-18T15:39:14;13.00;;;4.35;;
71914;SDS011;60387;49.994;14.660;2022-12-18T15:41:47;18.98;;;6.15;;
71914;SDS011;60387;49.994;14.660;2022-12-18T15:44:23;17.58;;;7.05;;
71914;SDS011;60387;49.994;14.660;2022-12-18T15:46:57;18.33;;;5.70;;
71914;SDS011;60387;49.994;14.660;2022-12-18T15:49:31;21.98;;;6.88;;
71914;SDS011;60387;49.994;14.660;2022-12-18T15:52:04;12.07;;;4.63;;
71914;SDS011;60387;49.994;14.660;2022-12-18T15:54:38;17.03;;;5.93;;
71914;SDS011;60387;49.994;14.660;2022-12-18T15:57:11;20.93;;;5.97;;
71914;SDS011;60387;49.994;14.660;2022-12-18T15:59:45;13.82;;;5.00;;
71914;SDS011;60387;49.994;14.660;2022-12-18T16:02:19;12.13;;;4.73;;
71914;SDS011;60387;49.994;14.660;2022-12-18T16:04:53;21.83;;;6.50;;
71914;SDS011;60387;49.994;14.660;2022-12-18T16:07:26;20.63;;;7.80;;
71914;SDS011;60387;49.994;14.660;2022-12-18T16:09:59;17.67;;;7.47;;
71914;SDS011;60387;49.994;14.660;2022-12-18T16:12:33;21.47;;;6.60;;
71914;SDS011;60387;49.994;14.660;2022-12-18T16:15:06;24.03;;;8.10;;
71914;SDS011;60387;49.994;14.660;2022-12-18T16:17:40;18.58;;;6.68;;
71914;SDS011;60387;49.994;14.660;2022-12-18T16:20:14;16.23;;;6.40;;
71914;SDS011;60387;49.994;14.660;2022-12-18T16:22:48;19.80;;;5.77;;
71914;SDS011;60387;49.994;14.660;2022-12-18T16:25:23;10.32;;;3.08;;
71914;SDS011;60387;49.994;14.660;2022-12-18T16:28:01;23.30;;;7.95;;
71914;SDS011;60387;49.994;14.660;2022-12-18T16:30:34;28.90;;;8.57;;
71914;SDS011;60387;49.994;14.660;2022-12-18T16:33:08;30.37;;;10.93;;
71914;SDS011;60387;49.994;14.660;2022-12-18T16:35:43;28.00;;;10.40;;
71914;SDS011;60387;49.994;14.660;2022-12-18T16:38:23;34.58;;;11.25;;
71914;SDS011;60387;49.994;14.660;2022-12-18T16:40:56;44.43;;;14.87;;
71914;SDS011;60387;49.994;14.660;2022-12-18T16:43:30;34.37;;;13.53;;
71914;SDS011;60387;49.994;14.660;2022-12-18T16:46:03;37.17;;;14.37;;
71914;SDS011;60387;49.994;14.660;2022-12-18T16:48:36;38.67;;;16.13;;
71914;SDS011;60387;49.994;14.660;2022-12-18T16:51:09;42.90;;;19.07;;
71914;SDS011;60387;49.994;14.660;2022-12-18T16:53:43;49.77;;;19.27;;
71914;SDS011;60387;49.994;14.660;2022-12-18T16:56:16;39.93;;;16.87;;
71914;SDS011;60387;49.994;14.660;2022-12-18T16:58:53;38.87;;;17.83;;
71914;SDS011;60387;49.994;14.660;2022-12-18T17:01:28;35.17;;;15.35;;
71914;SDS011;60387;49.994;14.660;2022-12-18T17:04:04;44.47;;;16.17;;